createdAt,value
2024-03-12T00:01:41.760Z,3.37
2024-03-12T00:04:11.952Z,3.27
2024-03-12T00:06:39.273Z,3.40
2024-03-12T00:09:10.463Z,3.40
2024-03-12T00:11:38.025Z,3.93
2024-03-12T00:14:05.227Z,4.07
2024-03-12T00:16:35.083Z,3.13
2024-03-12T00:19:02.687Z,3.37
2024-03-12T00:21:30.445Z,2.97
2024-03-12T00:23:59.725Z,3.27
2024-03-12T00:26:26.881Z,4.85
2024-03-12T00:28:53.692Z,8.77
2024-03-12T00:31:20.520Z,3.27
2024-03-12T00:33:48.653Z,3.40
2024-03-12T00:36:15.658Z,3.50
2024-03-12T00:38:42.912Z,3.87
2024-03-12T00:41:10.095Z,3.23
2024-03-12T00:43:37.125Z,3.40
2024-03-12T00:46:06.141Z,3.27
2024-03-12T00:48:33.142Z,3.43
2024-03-12T00:50:59.993Z,3.60
2024-03-12T00:53:26.785Z,3.50
2024-03-12T00:55:54.428Z,5.00
2024-03-12T00:58:22.177Z,3.60
2024-03-12T01:00:50.744Z,3.70
2024-03-12T01:03:18.457Z,3.77
2024-03-12T01:05:45.453Z,3.73
2024-03-12T01:08:13.337Z,3.97
2024-03-12T01:10:40.630Z,3.80
2024-03-12T01:13:10.768Z,3.70
2024-03-12T01:15:39.268Z,6.13
2024-03-12T01:18:06.418Z,4.03
2024-03-12T01:20:36.431Z,3.60
2024-03-12T01:23:07.045Z,4.03
2024-03-12T01:25:37.348Z,3.40
2024-03-12T01:28:08.066Z,3.40
2024-03-12T01:30:36.047Z,4.00
2024-03-12T01:33:07.064Z,3.87
2024-03-12T01:35:39.398Z,4.07
2024-03-12T01:38:07.142Z,3.83
2024-03-12T01:40:35.090Z,3.73
2024-03-12T01:43:04.341Z,4.23
2024-03-12T01:45:34.291Z,4.20
2024-03-12T01:48:10.148Z,5.80
2024-03-12T01:50:38.704Z,3.90
2024-03-12T01:53:07.321Z,3.70
2024-03-12T01:55:36.424Z,4.17
2024-03-12T01:58:03.721Z,4.00
2024-03-12T02:00:34.227Z,3.93
2024-03-12T02:03:01.785Z,6.07
2024-03-12T02:05:28.592Z,3.63
2024-03-12T02:07:55.825Z,3.97
2024-03-12T02:10:22.942Z,3.83
2024-03-12T02:12:50.196Z,4.13
2024-03-12T02:15:24.991Z,4.30
2024-03-12T02:17:55.068Z,3.40
2024-03-12T02:20:23.004Z,3.80
2024-03-12T02:22:54.975Z,3.83
2024-03-12T02:25:21.994Z,4.00
2024-03-12T02:27:48.957Z,3.10
2024-03-12T02:30:16.098Z,4.30
2024-03-12T02:32:42.936Z,4.03
2024-03-12T02:35:11.637Z,4.07
2024-03-12T02:37:42.063Z,3.50
2024-03-12T02:40:13.724Z,3.47
2024-03-12T02:42:44.840Z,4.20
2024-03-12T02:45:22.044Z,3.50
2024-03-12T02:47:49.176Z,3.90
2024-03-12T02:50:19.427Z,3.50
2024-03-12T02:52:46.901Z,3.30
2024-03-12T02:55:14.183Z,4.00
2024-03-12T02:57:41.258Z,3.57
2024-03-12T03:00:13.387Z,3.70
2024-03-12T03:02:47.630Z,3.97
2024-03-12T03:05:14.746Z,3.33
2024-03-12T03:07:42.355Z,3.73
2024-03-12T03:10:11.148Z,3.40
2024-03-12T03:12:40.547Z,4.47
2024-03-12T03:15:08.914Z,4.13
2024-03-12T03:17:36.798Z,4.00
2024-03-12T03:20:06.506Z,3.97
2024-03-12T03:22:35.984Z,4.13
2024-03-12T03:25:02.983Z,5.30
2024-03-12T03:27:30.000Z,3.83
2024-03-12T03:29:58.174Z,4.10
2024-03-12T03:32:25.467Z,4.13
2024-03-12T03:34:52.556Z,3.63
2024-03-12T03:37:22.029Z,3.77
2024-03-12T03:39:49.105Z,4.60
2024-03-12T03:42:16.418Z,4.10
2024-03-12T03:44:43.713Z,3.77
2024-03-12T03:47:10.809Z,5.37
2024-03-12T03:49:37.696Z,4.03
2024-03-12T03:52:05.052Z,5.73
2024-03-12T03:54:32.286Z,4.63
2024-03-12T03:56:59.051Z,4.13
2024-03-12T03:59:26.902Z,4.23
2024-03-12T04:01:53.810Z,4.37
2024-03-12T04:04:20.741Z,4.07
2024-03-12T04:06:50.351Z,5.23
2024-03-12T04:09:19.544Z,4.93
2024-03-12T04:11:46.310Z,4.20
2024-03-12T04:14:13.074Z,4.43
2024-03-12T04:16:40.776Z,4.63
2024-03-12T04:19:07.665Z,4.73
2024-03-12T04:21:35.591Z,5.07
2024-03-12T04:24:02.372Z,4.23
2024-03-12T04:26:30.233Z,5.73
2024-03-12T04:28:57.182Z,5.37
2024-03-12T04:31:24.228Z,4.50
2024-03-12T04:33:53.731Z,4.80
2024-03-12T04:36:23.941Z,5.10
2024-03-12T04:38:51.278Z,5.03
2024-03-12T04:41:21.947Z,5.50
2024-03-12T04:43:52.136Z,4.87
2024-03-12T04:46:19.696Z,8.60
2024-03-12T04:48:47.941Z,4.87
2024-03-12T04:51:15.583Z,5.20
2024-03-12T04:53:42.881Z,5.33
2024-03-12T04:56:09.794Z,4.97
2024-03-12T04:58:38.241Z,5.17
2024-03-12T05:01:07.363Z,5.33
2024-03-12T05:03:34.528Z,6.03
2024-03-12T05:06:01.683Z,4.73
2024-03-12T05:08:29.041Z,6.63
2024-03-12T05:10:56.379Z,5.50
2024-03-12T05:13:24.137Z,5.07
2024-03-12T05:15:51.031Z,5.80
2024-03-12T05:18:17.851Z,5.47
2024-03-12T05:20:44.690Z,5.37
2024-03-12T05:23:11.892Z,5.70
2024-03-12T05:25:42.513Z,4.50
2024-03-12T05:28:10.653Z,4.40
2024-03-12T05:30:38.650Z,5.33
2024-03-12T05:33:11.409Z,4.90
2024-03-12T05:35:40.350Z,4.70
2024-03-12T05:38:13.400Z,5.17
2024-03-12T05:41:05.579Z,4.43
2024-03-12T05:43:50.936Z,6.47
2024-03-12T05:46:36.848Z,4.60
2024-03-12T05:49:03.823Z,6.00
2024-03-12T05:51:33.236Z,4.33
2024-03-12T05:54:00.151Z,4.33
2024-03-12T05:56:27.732Z,4.47
2024-03-12T05:58:54.617Z,4.83
2024-03-12T06:01:22.623Z,4.37
2024-03-12T06:03:51.351Z,6.00
2024-03-12T06:06:21.041Z,4.93
2024-03-12T06:08:47.889Z,4.97
2024-03-12T06:11:15.653Z,4.20
2024-03-12T06:13:44.219Z,4.53
2024-03-12T06:16:12.491Z,4.53
2024-03-12T06:18:40.411Z,4.33
2024-03-12T06:21:08.264Z,5.43
2024-03-12T06:23:36.801Z,8.03
2024-03-12T06:26:05.459Z,4.93
2024-03-12T06:28:33.242Z,5.13
2024-03-12T06:31:00.753Z,4.30
2024-03-12T06:33:28.235Z,4.43
2024-03-12T06:35:55.410Z,4.60
2024-03-12T06:38:22.254Z,4.43
2024-03-12T06:40:51.814Z,4.77
2024-03-12T06:43:18.848Z,4.40
2024-03-12T06:45:46.408Z,5.50
2024-03-12T06:48:14.949Z,4.23
2024-03-12T06:50:42.406Z,4.53
2024-03-12T06:53:10.549Z,5.10
2024-03-12T06:55:38.091Z,5.23
2024-03-12T06:58:08.608Z,5.10
2024-03-12T07:00:39.189Z,5.70
2024-03-12T07:03:06.618Z,6.07
2024-03-12T07:05:44.599Z,5.13
2024-03-12T07:08:15.977Z,5.00
2024-03-12T07:10:43.245Z,5.03
2024-03-12T07:13:11.258Z,4.80
2024-03-12T07:15:40.998Z,4.57
2024-03-12T07:18:09.343Z,5.50
2024-03-12T07:20:36.716Z,4.93
2024-03-12T07:23:04.624Z,6.27
2024-03-12T07:25:34.435Z,5.30
2024-03-12T07:28:07.336Z,4.40
2024-03-12T07:30:36.362Z,6.50
2024-03-12T07:33:04.485Z,5.83
2024-03-12T07:35:31.968Z,5.47
2024-03-12T07:37:58.788Z,5.63
2024-03-12T07:40:26.857Z,6.47
2024-03-12T07:42:53.868Z,5.57
2024-03-12T07:45:25.812Z,5.77
2024-03-12T07:47:53.160Z,6.67
2024-03-12T07:50:20.017Z,6.40
2024-03-12T07:52:47.076Z,6.40
2024-03-12T07:55:14.582Z,6.10
2024-03-12T07:57:41.863Z,5.47
2024-03-12T08:00:18.517Z,5.33
2024-03-12T08:02:45.628Z,7.03
2024-03-12T08:05:13.489Z,6.13
2024-03-12T08:07:40.474Z,4.80
2024-03-12T08:10:07.742Z,6.03
2024-03-12T08:12:35.021Z,5.27
2024-03-12T08:15:02.702Z,6.80
2024-03-12T08:17:29.686Z,5.63
2024-03-12T08:19:57.965Z,5.57
2024-03-12T08:22:25.342Z,10.07
2024-03-12T08:24:53.107Z,7.93
2024-03-12T08:27:20.130Z,8.30
2024-03-12T08:29:46.995Z,7.33
2024-03-12T08:32:14.402Z,5.57
2024-03-12T08:34:43.309Z,7.50
2024-03-12T08:37:13.096Z,4.77
2024-03-12T08:39:40.709Z,5.23
2024-03-12T08:42:10.833Z,5.00
2024-03-12T08:44:38.548Z,4.77
2024-03-12T08:47:06.102Z,4.73
2024-03-12T08:49:34.687Z,4.93
2024-03-12T08:52:01.852Z,4.87
2024-03-12T08:54:28.956Z,5.87
2024-03-12T08:56:55.969Z,5.47
2024-03-12T08:59:22.949Z,5.20
2024-03-12T09:01:52.609Z,4.80
2024-03-12T09:04:19.953Z,4.73
2024-03-12T09:06:47.695Z,3.73
2024-03-12T09:09:17.215Z,3.60
2024-03-12T09:11:44.183Z,4.37
2024-03-12T09:14:11.807Z,4.00
2024-03-12T09:16:38.735Z,3.80
2024-03-12T09:19:06.299Z,4.67
2024-03-12T09:21:35.325Z,4.47
2024-03-12T09:24:02.934Z,3.50
2024-03-12T09:26:30.583Z,3.63
2024-03-12T09:28:58.967Z,3.10
2024-03-12T09:31:26.260Z,3.93
2024-03-12T09:33:53.910Z,3.00
2024-03-12T09:36:22.121Z,3.90
2024-03-12T09:38:51.805Z,3.30
2024-03-12T09:41:21.514Z,6.20
2024-03-12T09:43:48.407Z,3.83
2024-03-12T09:46:17.598Z,4.90
2024-03-12T09:48:46.431Z,4.30
2024-03-12T09:51:13.580Z,5.77
2024-03-12T09:53:42.762Z,6.27
2024-03-12T09:56:12.131Z,6.97
2024-03-12T09:58:39.671Z,4.57
2024-03-12T10:01:07.598Z,4.47
2024-03-12T10:03:38.582Z,4.37
2024-03-12T10:06:07.736Z,4.77
2024-03-12T10:08:35.824Z,5.23
2024-03-12T10:11:09.643Z,7.47
2024-03-12T10:13:39.828Z,5.10
2024-03-12T10:16:08.650Z,4.40
2024-03-12T10:18:36.174Z,4.73
2024-03-12T10:21:03.774Z,4.63
2024-03-12T10:23:37.737Z,4.53
2024-03-12T10:26:11.109Z,6.83
2024-03-12T10:28:39.216Z,4.90
2024-03-12T10:31:11.510Z,6.47
2024-03-12T10:33:46.720Z,6.03
2024-03-12T10:36:13.903Z,5.93
2024-03-12T10:38:41.773Z,8.05
2024-03-12T10:41:17.907Z,5.57
2024-03-12T10:43:51.049Z,5.88
2024-03-12T10:46:19.055Z,8.32
2024-03-12T10:48:49.785Z,6.93
2024-03-12T10:51:18.754Z,6.40
2024-03-12T10:53:48.733Z,6.40
2024-03-12T10:56:17.192Z,7.72
2024-03-12T10:58:48.555Z,7.15
2024-03-12T11:01:18.478Z,9.23
2024-03-12T11:03:46.520Z,10.75
2024-03-12T11:06:16.868Z,10.13
2024-03-12T11:08:45.046Z,11.65
2024-03-12T11:11:11.917Z,11.88
2024-03-12T11:13:39.414Z,11.93
2024-03-12T11:16:14.947Z,13.50
2024-03-12T11:18:42.195Z,10.65
2024-03-12T11:21:33.050Z,12.50
2024-03-12T11:23:59.909Z,17.33
2024-03-12T11:29:00.319Z,13.35
2024-03-12T11:31:40.637Z,11.73
2024-03-12T11:34:08.399Z,20.70
2024-03-12T11:36:41.449Z,17.65
2024-03-12T11:39:13.454Z,19.88
2024-03-12T11:42:00.749Z,33.72
2024-03-12T11:44:50.711Z,14.88
2024-03-12T11:47:36.305Z,15.30
2024-03-12T11:50:05.250Z,18.88
2024-03-12T11:52:34.844Z,12.75
2024-03-12T11:55:05.243Z,16.90
2024-03-12T11:57:32.510Z,13.98
2024-03-12T12:00:00.316Z,15.75
2024-03-12T12:02:28.297Z,14.68
2024-03-12T12:04:56.898Z,14.90
2024-03-12T12:07:26.655Z,15.75
2024-03-12T12:09:54.441Z,14.18
2024-03-12T12:12:21.800Z,13.52
2024-03-12T12:14:49.810Z,12.45
2024-03-12T12:17:24.515Z,14.63
2024-03-12T12:20:18.024Z,13.32
2024-03-12T12:22:47.539Z,15.13
2024-03-12T12:25:19.995Z,15.57
2024-03-12T12:27:47.775Z,14.65
2024-03-12T12:30:17.407Z,17.45
2024-03-12T12:32:45.627Z,18.08
2024-03-12T12:35:15.461Z,19.88
2024-03-12T12:37:46.238Z,18.40
2024-03-12T12:40:18.960Z,17.73
2024-03-12T12:42:47.220Z,18.75
2024-03-12T12:45:15.226Z,19.75
2024-03-12T12:47:50.485Z,18.35
2024-03-12T12:50:36.326Z,18.85
2024-03-12T12:53:04.086Z,17.27
2024-03-12T12:55:31.451Z,19.23
2024-03-12T12:58:03.192Z,19.00
2024-03-12T13:00:37.312Z,19.88
2024-03-12T13:03:19.203Z,22.25
2024-03-12T13:05:47.629Z,22.73
2024-03-12T13:08:23.159Z,18.58
2024-03-12T13:11:06.756Z,21.83
2024-03-12T13:13:35.161Z,20.67
2024-03-12T13:16:16.657Z,18.05
2024-03-12T13:18:47.919Z,19.05
2024-03-12T13:21:22.801Z,20.00
2024-03-12T13:23:51.064Z,20.98
2024-03-12T13:26:19.244Z,28.05
2024-03-12T13:28:50.895Z,20.13
2024-03-12T13:31:18.108Z,21.55
2024-03-12T13:33:45.403Z,21.40
2024-03-12T13:36:12.628Z,21.85
2024-03-12T13:38:41.058Z,19.75
2024-03-12T13:41:09.214Z,20.60
2024-03-12T13:43:36.364Z,22.38
2024-03-12T13:46:06.799Z,20.00
2024-03-12T13:48:38.314Z,22.88
2024-03-12T13:51:08.634Z,21.33
2024-03-12T13:53:36.038Z,22.65
2024-03-12T13:56:04.093Z,21.25
2024-03-12T13:58:30.865Z,20.27
2024-03-12T14:00:59.108Z,23.52
2024-03-12T14:03:31.679Z,24.33
2024-03-12T14:06:00.408Z,20.65
2024-03-12T14:08:28.600Z,22.27
2024-03-12T14:10:58.003Z,18.23
2024-03-12T14:13:24.865Z,20.92
2024-03-12T14:15:51.722Z,20.20
2024-03-12T14:18:22.754Z,18.75
2024-03-12T14:20:53.647Z,20.10
2024-03-12T14:23:21.369Z,20.33
2024-03-12T14:25:50.418Z,18.05
2024-03-12T14:28:17.731Z,19.90
2024-03-12T14:30:45.697Z,22.20
2024-03-12T14:33:13.315Z,18.80
2024-03-12T14:35:40.178Z,23.30
2024-03-12T14:38:07.140Z,109.32
2024-03-12T14:40:33.970Z,85.07
2024-03-12T14:43:01.734Z,25.23
2024-03-12T14:45:30.852Z,21.63
2024-03-12T14:47:58.053Z,22.50
2024-03-12T14:50:25.214Z,26.33
2024-03-12T14:52:52.166Z,29.77
2024-03-12T14:55:19.275Z,20.42
2024-03-12T14:57:46.888Z,23.08
2024-03-12T15:00:17.741Z,19.98
2024-03-12T15:02:45.039Z,20.13
2024-03-12T15:05:12.231Z,17.23
2024-03-12T15:07:45.034Z,17.67
2024-03-12T15:10:13.028Z,21.63
2024-03-12T15:12:41.969Z,18.80
2024-03-12T15:15:13.553Z,17.35
2024-03-12T15:17:42.092Z,17.67
2024-03-12T15:20:16.456Z,18.88
2024-03-12T15:22:44.694Z,18.83
2024-03-12T15:25:16.155Z,17.42
2024-03-12T15:27:43.588Z,14.98
2024-03-12T15:30:11.021Z,17.40
2024-03-12T15:32:39.961Z,17.80
2024-03-12T15:35:07.815Z,16.83
2024-03-12T15:37:37.033Z,17.13
2024-03-12T15:40:09.384Z,16.70
2024-03-12T15:42:37.634Z,17.83
2024-03-12T15:45:10.740Z,17.48
2024-03-12T15:47:40.543Z,18.83
2024-03-12T15:50:08.669Z,14.77
2024-03-12T15:52:35.799Z,17.85
2024-03-12T15:55:05.671Z,16.63
2024-03-12T15:57:32.576Z,17.33
2024-03-12T15:59:59.369Z,15.02
2024-03-12T16:02:26.224Z,14.32
2024-03-12T16:04:53.774Z,19.00
2024-03-12T16:07:20.704Z,17.25
2024-03-12T16:09:47.762Z,16.40
2024-03-12T16:12:14.940Z,15.23
2024-03-12T16:14:42.620Z,12.35
2024-03-12T16:17:10.735Z,15.30
2024-03-12T16:19:37.932Z,17.00
2024-03-12T16:22:05.072Z,12.00
2024-03-12T16:24:32.702Z,13.82
2024-03-12T16:27:00.432Z,16.33
2024-03-12T16:29:28.219Z,13.20
2024-03-12T16:31:55.641Z,13.65
2024-03-12T16:34:26.844Z,13.27
2024-03-12T16:36:57.689Z,14.32
2024-03-12T16:39:24.717Z,12.68
2024-03-12T16:41:57.436Z,12.88
2024-03-12T16:44:25.477Z,14.68
2024-03-12T16:46:55.516Z,15.52
2024-03-12T16:49:23.144Z,14.57
2024-03-12T16:51:51.304Z,14.55
2024-03-12T16:54:18.692Z,13.55
2024-03-12T16:56:48.425Z,14.57
2024-03-12T16:59:17.706Z,13.50
2024-03-12T17:01:46.608Z,14.25
2024-03-12T17:04:14.340Z,11.05
2024-03-12T17:06:42.849Z,11.82
2024-03-12T17:09:10.902Z,13.50
2024-03-12T17:11:39.255Z,10.90
2024-03-12T17:14:10.398Z,12.60
2024-03-12T17:16:46.720Z,12.27
2024-03-12T17:19:16.020Z,15.45
2024-03-12T17:21:43.321Z,12.20
2024-03-12T17:24:10.532Z,16.58
2024-03-12T17:26:38.451Z,14.90
2024-03-12T17:29:05.987Z,15.52
2024-03-12T17:31:33.083Z,16.02
2024-03-12T17:34:00.172Z,15.25
2024-03-12T17:36:27.791Z,16.42
2024-03-12T17:38:55.802Z,14.80
2024-03-12T17:41:24.321Z,14.25
2024-03-12T17:43:51.420Z,15.57
2024-03-12T17:46:19.020Z,17.42
2024-03-12T17:48:46.146Z,14.25
2024-03-12T17:51:13.810Z,16.35
2024-03-12T17:53:41.266Z,24.55
2024-03-12T17:56:14.147Z,18.02
2024-03-12T17:58:46.519Z,15.23
2024-03-12T18:01:13.505Z,15.35
2024-03-12T18:03:41.182Z,16.25
2024-03-12T18:06:12.051Z,13.17
2024-03-12T18:08:43.847Z,18.55
2024-03-12T18:11:12.705Z,23.13
2024-03-12T18:13:39.988Z,15.85
2024-03-12T18:16:07.186Z,20.08
2024-03-12T18:18:34.027Z,17.30
2024-03-12T18:21:02.304Z,15.82
2024-03-12T18:23:30.522Z,16.00
2024-03-12T18:26:00.062Z,14.48
2024-03-12T18:28:26.783Z,16.50
2024-03-12T18:30:53.542Z,16.38
2024-03-12T18:33:20.374Z,16.20
2024-03-12T18:35:47.512Z,16.65
2024-03-12T18:38:14.400Z,16.75
2024-03-12T18:40:41.213Z,15.50
2024-03-12T18:43:08.668Z,13.98
2024-03-12T18:45:36.205Z,16.05
2024-03-12T18:48:03.346Z,16.83
2024-03-12T18:50:31.847Z,15.13
2024-03-12T18:52:58.870Z,12.90
2024-03-12T18:55:28.136Z,16.77
2024-03-12T18:57:55.633Z,14.55
2024-03-12T19:00:24.905Z,14.48
2024-03-12T19:02:53.774Z,12.20
2024-03-12T19:05:23.165Z,15.85
2024-03-12T19:07:52.057Z,15.77
2024-03-12T19:10:20.383Z,17.63
2024-03-12T19:12:47.694Z,18.60
2024-03-12T19:15:16.729Z,16.92
2024-03-12T19:17:45.856Z,15.70
2024-03-12T19:20:19.396Z,17.95
2024-03-12T19:22:57.662Z,14.82
2024-03-12T19:25:26.858Z,14.60
2024-03-12T19:27:54.035Z,14.63
2024-03-12T19:30:21.284Z,18.40
2024-03-12T19:32:49.953Z,15.43
2024-03-12T19:35:18.266Z,15.70
2024-03-12T19:37:46.957Z,14.70
2024-03-12T19:40:17.526Z,14.80
2024-03-12T19:42:46.586Z,13.07
2024-03-12T19:45:21.077Z,15.83
2024-03-12T19:47:49.875Z,11.40
2024-03-12T19:50:21.549Z,11.93
2024-03-12T19:52:48.600Z,12.10
2024-03-12T19:55:20.057Z,12.25
2024-03-12T19:57:51.513Z,12.27
2024-03-12T20:00:20.256Z,12.10
2024-03-12T20:02:51.027Z,14.23
2024-03-12T20:05:20.772Z,11.70
2024-03-12T20:07:48.771Z,11.00
2024-03-12T20:10:17.438Z,9.83
2024-03-12T20:12:44.705Z,9.20
2024-03-12T20:15:13.069Z,9.83
2024-03-12T20:17:43.756Z,12.40
2024-03-12T20:20:15.630Z,11.40
2024-03-12T20:22:43.312Z,10.82
2024-03-12T20:25:10.592Z,10.77
2024-03-12T20:27:37.697Z,10.20
2024-03-12T20:30:08.930Z,11.77
2024-03-12T20:32:36.379Z,11.23
2024-03-12T20:35:03.342Z,9.80
2024-03-12T20:37:30.177Z,12.87
2024-03-12T20:39:58.250Z,10.05
2024-03-12T20:42:26.593Z,11.98
2024-03-12T20:44:54.152Z,11.65
2024-03-12T20:47:21.454Z,11.02
2024-03-12T20:49:51.041Z,10.30
2024-03-12T20:52:21.938Z,10.13
2024-03-12T20:54:53.650Z,9.57
2024-03-12T20:57:20.366Z,10.60
2024-03-12T20:59:48.482Z,9.82
2024-03-12T21:02:15.446Z,10.73
2024-03-12T21:04:42.626Z,13.15
2024-03-12T21:07:10.375Z,10.95
2024-03-12T21:09:39.518Z,9.32
2024-03-12T21:12:06.725Z,9.77
2024-03-12T21:14:33.493Z,9.10
2024-03-12T21:17:03.976Z,8.97
2024-03-12T21:19:31.478Z,8.87
2024-03-12T21:21:59.875Z,10.10
2024-03-12T21:24:27.447Z,8.67
2024-03-12T21:26:56.366Z,12.03
2024-03-12T21:29:23.514Z,9.30
2024-03-12T21:31:51.060Z,8.57
2024-03-12T21:34:18.998Z,8.87
2024-03-12T21:36:46.250Z,9.13
2024-03-12T21:39:15.231Z,8.57
2024-03-12T21:41:42.184Z,7.37
2024-03-12T21:44:09.646Z,7.77
2024-03-12T21:46:37.290Z,8.83
2024-03-12T21:49:04.279Z,8.40
2024-03-12T21:51:31.120Z,8.40
2024-03-12T21:53:58.505Z,8.63
2024-03-12T21:56:25.617Z,9.37
2024-03-12T21:58:55.101Z,6.53
2024-03-12T22:01:22.734Z,6.53
2024-03-12T22:03:51.395Z,6.70
2024-03-12T22:06:19.163Z,6.70
2024-03-12T22:08:46.217Z,8.13
2024-03-12T22:11:15.046Z,7.83
2024-03-12T22:13:45.457Z,6.90
2024-03-12T22:16:17.320Z,6.80
2024-03-12T22:18:44.861Z,6.43
2024-03-12T22:21:12.297Z,6.40
2024-03-12T22:23:44.372Z,5.70
2024-03-12T22:26:12.550Z,7.00
2024-03-12T22:28:39.423Z,6.03
2024-03-12T22:31:07.206Z,6.67
2024-03-12T22:33:34.555Z,7.53
2024-03-12T22:36:02.076Z,8.10
2024-03-12T22:38:29.497Z,5.90
2024-03-12T22:40:56.603Z,9.17
2024-03-12T22:43:26.577Z,5.70
2024-03-12T22:45:55.214Z,5.57
2024-03-12T22:48:22.604Z,6.07
2024-03-12T22:50:50.597Z,5.50
2024-03-12T22:53:23.396Z,5.77
2024-03-12T22:55:50.229Z,5.07
2024-03-12T22:58:17.213Z,5.27
2024-03-12T23:00:46.721Z,5.40
2024-03-12T23:03:16.371Z,5.38
2024-03-12T23:05:43.437Z,6.90
2024-03-12T23:08:15.771Z,5.23
2024-03-12T23:10:44.985Z,6.30
2024-03-12T23:13:12.204Z,5.10
2024-03-12T23:15:40.081Z,6.20
2024-03-12T23:18:12.923Z,6.27
2024-03-12T23:20:41.441Z,8.07
2024-03-12T23:23:08.999Z,5.70
2024-03-12T23:25:37.477Z,4.53
2024-03-12T23:28:05.739Z,4.43
2024-03-12T23:30:35.573Z,7.53
2024-03-12T23:33:03.146Z,4.80
2024-03-12T23:35:30.697Z,5.67
2024-03-12T23:38:00.184Z,4.60
2024-03-12T23:40:28.958Z,5.67
2024-03-12T23:42:56.260Z,4.97
2024-03-12T23:45:24.021Z,4.93
2024-03-12T23:47:52.757Z,5.70
2024-03-12T23:50:21.548Z,6.37
2024-03-12T23:52:49.817Z,5.00
2024-03-12T23:55:16.903Z,5.63
2024-03-12T23:57:44.170Z,6.17
